sensor_id;sensor_type;location;lat;lon;timestamp;P1;durP1;ratioP1;P2;durP2;ratioP2
4555;SDS011;2290;48.674;9.018;2023-05-07T00:00:21;4.53;;;3.03;;
4555;SDS011;2290;48.674;9.018;2023-05-07T00:02:46;5.90;;;3.20;;
4555;SDS011;2290;48.674;9.018;2023-05-07T00:05:13;4.27;;;3.20;;
4555;SDS011;2290;48.674;9.018;2023-05-07T00:07:39;3.57;;;2.77;;
4555;SDS011;2290;48.674;9.018;2023-05-07T00:10:05;3.87;;;2.60;;
4555;SDS011;2290;48.674;9.018;2023-05-07T00:12:33;4.87;;;3.30;;
4555;SDS011;2290;48.674;9.018;2023-05-07T00:14:59;3.93;;;2.80;;
4555;SDS011;2290;48.674;9.018;2023-05-07T00:17:26;2.90;;;2.60;;
4555;SDS011;2290;48.674;9.018;2023-05-07T00:19:53;2.80;;;2.50;;
4555;SDS011;2290;48.674;9.018;2023-05-07T00:22:18;8.30;;;2.80;;
4555;SDS011;2290;48.674;9.018;2023-05-07T00:24:46;5.73;;;2.77;;
4555;SDS011;2290;48.674;9.018;2023-05-07T00:27:11;4.07;;;2.80;;
4555;SDS011;2290;48.674;9.018;2023-05-07T00:29:37;3.33;;;2.40;;
4555;SDS011;2290;48.674;9.018;2023-05-07T00:32:02;3.37;;;2.83;;
4555;SDS011;2290;48.674;9.018;2023-05-07T00:34:28;3.80;;;2.70;;
4555;SDS011;2290;48.674;9.018;2023-05-07T00:36:53;4.60;;;3.00;;
4555;SDS011;2290;48.674;9.018;2023-05-07T00:39:19;3.53;;;2.80;;
4555;SDS011;2290;48.674;9.018;2023-05-07T00:41:44;4.47;;;3.20;;
4555;SDS011;2290;48.674;9.018;2023-05-07T00:44:11;5.80;;;3.60;;
4555;SDS011;2290;48.674;9.018;2023-05-07T00:46:37;7.50;;;3.70;;
4555;SDS011;2290;48.674;9.018;2023-05-07T00:49:03;3.70;;;2.90;;
4555;SDS011;2290;48.674;9.018;2023-05-07T00:51:30;3.43;;;2.90;;
4555;SDS011;2290;48.674;9.018;2023-05-07T00:53:57;5.57;;;3.00;;
4555;SDS011;2290;48.674;9.018;2023-05-07T00:56:26;8.00;;;3.40;;
4555;SDS011;2290;48.674;9.018;2023-05-07T00:58:53;3.10;;;2.47;;
4555;SDS011;2290;48.674;9.018;2023-05-07T01:01:21;3.00;;;2.70;;
4555;SDS011;2290;48.674;9.018;2023-05-07T01:03:48;4.67;;;3.60;;
4555;SDS011;2290;48.674;9.018;2023-05-07T01:06:15;4.83;;;2.87;;
4555;SDS011;2290;48.674;9.018;2023-05-07T01:08:43;3.80;;;3.00;;
4555;SDS011;2290;48.674;9.018;2023-05-07T01:11:09;2.80;;;2.40;;
4555;SDS011;2290;48.674;9.018;2023-05-07T01:13:36;3.03;;;2.73;;
4555;SDS011;2290;48.674;9.018;2023-05-07T01:16:03;3.53;;;3.13;;
4555;SDS011;2290;48.674;9.018;2023-05-07T01:18:29;4.50;;;3.10;;
4555;SDS011;2290;48.674;9.018;2023-05-07T01:20:56;3.30;;;2.90;;
4555;SDS011;2290;48.674;9.018;2023-05-07T01:23:24;4.00;;;3.40;;
4555;SDS011;2290;48.674;9.018;2023-05-07T01:25:53;4.73;;;3.47;;
4555;SDS011;2290;48.674;9.018;2023-05-07T01:28:19;9.00;;;3.17;;
4555;SDS011;2290;48.674;9.018;2023-05-07T01:30:48;3.73;;;2.83;;
4555;SDS011;2290;48.674;9.018;2023-05-07T01:33:18;3.53;;;3.23;;
4555;SDS011;2290;48.674;9.018;2023-05-07T01:35:47;3.87;;;3.07;;
4555;SDS011;2290;48.674;9.018;2023-05-07T01:38:15;7.27;;;2.77;;
4555;SDS011;2290;48.674;9.018;2023-05-07T01:40:41;4.33;;;3.30;;
4555;SDS011;2290;48.674;9.018;2023-05-07T01:43:07;4.80;;;2.90;;
4555;SDS011;2290;48.674;9.018;2023-05-07T01:45:33;3.50;;;2.80;;
4555;SDS011;2290;48.674;9.018;2023-05-07T01:47:59;3.47;;;2.90;;
4555;SDS011;2290;48.674;9.018;2023-05-07T01:50:27;4.60;;;3.57;;
4555;SDS011;2290;48.674;9.018;2023-05-07T01:52:55;3.80;;;3.07;;
4555;SDS011;2290;48.674;9.018;2023-05-07T01:55:21;4.50;;;3.30;;
4555;SDS011;2290;48.674;9.018;2023-05-07T01:57:46;5.03;;;3.70;;
4555;SDS011;2290;48.674;9.018;2023-05-07T02:00:13;3.57;;;3.13;;
4555;SDS011;2290;48.674;9.018;2023-05-07T02:02:39;4.50;;;3.33;;
4555;SDS011;2290;48.674;9.018;2023-05-07T02:05:05;4.07;;;3.47;;
4555;SDS011;2290;48.674;9.018;2023-05-07T02:07:32;4.80;;;3.30;;
4555;SDS011;2290;48.674;9.018;2023-05-07T02:09:58;4.70;;;3.30;;
4555;SDS011;2290;48.674;9.018;2023-05-07T02:12:23;4.33;;;3.07;;
4555;SDS011;2290;48.674;9.018;2023-05-07T02:14:50;4.93;;;2.83;;
4555;SDS011;2290;48.674;9.018;2023-05-07T02:17:16;3.90;;;3.30;;
4555;SDS011;2290;48.674;9.018;2023-05-07T02:19:43;4.00;;;3.33;;
4555;SDS011;2290;48.674;9.018;2023-05-07T02:22:09;4.03;;;3.63;;
4555;SDS011;2290;48.674;9.018;2023-05-07T02:24:36;7.80;;;3.40;;
4555;SDS011;2290;48.674;9.018;2023-05-07T02:27:03;3.77;;;2.93;;
4555;SDS011;2290;48.674;9.018;2023-05-07T02:29:29;6.20;;;3.37;;
4555;SDS011;2290;48.674;9.018;2023-05-07T02:31:56;7.00;;;3.63;;
4555;SDS011;2290;48.674;9.018;2023-05-07T02:34:24;3.77;;;2.97;;
4555;SDS011;2290;48.674;9.018;2023-05-07T02:36:51;4.30;;;3.60;;
4555;SDS011;2290;48.674;9.018;2023-05-07T02:39:18;4.67;;;3.60;;
4555;SDS011;2290;48.674;9.018;2023-05-07T02:41:44;4.13;;;3.73;;
4555;SDS011;2290;48.674;9.018;2023-05-07T02:44:09;4.13;;;3.50;;
4555;SDS011;2290;48.674;9.018;2023-05-07T02:46:36;4.73;;;3.70;;
4555;SDS011;2290;48.674;9.018;2023-05-07T02:49:02;4.23;;;3.60;;
4555;SDS011;2290;48.674;9.018;2023-05-07T02:51:29;4.60;;;3.67;;
4555;SDS011;2290;48.674;9.018;2023-05-07T02:53:56;5.20;;;3.60;;
4555;SDS011;2290;48.674;9.018;2023-05-07T02:56:22;4.40;;;3.27;;
4555;SDS011;2290;48.674;9.018;2023-05-07T02:58:49;3.90;;;3.60;;
4555;SDS011;2290;48.674;9.018;2023-05-07T03:01:14;5.83;;;3.40;;
4555;SDS011;2290;48.674;9.018;2023-05-07T03:03:40;5.03;;;3.70;;
4555;SDS011;2290;48.674;9.018;2023-05-07T03:06:06;4.37;;;3.70;;
4555;SDS011;2290;48.674;9.018;2023-05-07T03:08:32;4.60;;;3.27;;
4555;SDS011;2290;48.674;9.018;2023-05-07T03:10:58;10.43;;;4.07;;
4555;SDS011;2290;48.674;9.018;2023-05-07T03:13:30;4.57;;;3.43;;
4555;SDS011;2290;48.674;9.018;2023-05-07T03:16:15;3.77;;;3.27;;
4555;SDS011;2290;48.674;9.018;2023-05-07T03:18:41;3.60;;;3.27;;
4555;SDS011;2290;48.674;9.018;2023-05-07T03:21:07;5.90;;;3.70;;
4555;SDS011;2290;48.674;9.018;2023-05-07T03:23:34;5.10;;;3.90;;
4555;SDS011;2290;48.674;9.018;2023-05-07T03:25:59;6.63;;;3.87;;
4555;SDS011;2290;48.674;9.018;2023-05-07T03:28:25;3.90;;;3.10;;
4555;SDS011;2290;48.674;9.018;2023-05-07T03:30:52;3.87;;;3.47;;
4555;SDS011;2290;48.674;9.018;2023-05-07T03:33:19;4.57;;;3.60;;
4555;SDS011;2290;48.674;9.018;2023-05-07T03:35:45;5.00;;;3.57;;
4555;SDS011;2290;48.674;9.018;2023-05-07T03:38:12;3.70;;;3.13;;
4555;SDS011;2290;48.674;9.018;2023-05-07T03:40:37;3.00;;;2.70;;
4555;SDS011;2290;48.674;9.018;2023-05-07T03:43:03;5.53;;;3.20;;
4555;SDS011;2290;48.674;9.018;2023-05-07T03:45:30;4.23;;;3.30;;
4555;SDS011;2290;48.674;9.018;2023-05-07T03:47:57;4.50;;;3.33;;
4555;SDS011;2290;48.674;9.018;2023-05-07T03:50:24;3.90;;;3.00;;
4555;SDS011;2290;48.674;9.018;2023-05-07T03:52:50;3.30;;;3.00;;
4555;SDS011;2290;48.674;9.018;2023-05-07T03:55:15;3.93;;;3.50;;
4555;SDS011;2290;48.674;9.018;2023-05-07T03:57:42;6.30;;;3.87;;
4555;SDS011;2290;48.674;9.018;2023-05-07T04:00:10;4.20;;;3.20;;
4555;SDS011;2290;48.674;9.018;2023-05-07T04:02:37;4.87;;;3.50;;
4555;SDS011;2290;48.674;9.018;2023-05-07T04:05:03;4.00;;;2.70;;
4555;SDS011;2290;48.674;9.018;2023-05-07T04:07:29;4.83;;;3.33;;
4555;SDS011;2290;48.674;9.018;2023-05-07T04:09:54;8.00;;;3.00;;
4555;SDS011;2290;48.674;9.018;2023-05-07T04:12:21;5.70;;;3.50;;
4555;SDS011;2290;48.674;9.018;2023-05-07T04:14:47;3.70;;;3.27;;
4555;SDS011;2290;48.674;9.018;2023-05-07T04:17:12;4.10;;;3.00;;
4555;SDS011;2290;48.674;9.018;2023-05-07T04:19:38;4.70;;;3.40;;
4555;SDS011;2290;48.674;9.018;2023-05-07T04:22:03;3.20;;;2.90;;
4555;SDS011;2290;48.674;9.018;2023-05-07T04:24:32;3.33;;;3.00;;
4555;SDS011;2290;48.674;9.018;2023-05-07T04:26:58;4.10;;;3.30;;
4555;SDS011;2290;48.674;9.018;2023-05-07T04:29:23;5.97;;;4.50;;
4555;SDS011;2290;48.674;9.018;2023-05-07T04:31:49;4.23;;;3.60;;
4555;SDS011;2290;48.674;9.018;2023-05-07T04:34:14;3.60;;;3.17;;
4555;SDS011;2290;48.674;9.018;2023-05-07T04:36:41;4.23;;;3.20;;
4555;SDS011;2290;48.674;9.018;2023-05-07T04:39:07;4.27;;;3.50;;
4555;SDS011;2290;48.674;9.018;2023-05-07T04:41:32;3.83;;;3.43;;
4555;SDS011;2290;48.674;9.018;2023-05-07T04:44:01;4.27;;;3.50;;
4555;SDS011;2290;48.674;9.018;2023-05-07T04:46:29;5.80;;;3.33;;
4555;SDS011;2290;48.674;9.018;2023-05-07T04:48:55;3.23;;;2.90;;
4555;SDS011;2290;48.674;9.018;2023-05-07T04:51:20;4.10;;;3.40;;
4555;SDS011;2290;48.674;9.018;2023-05-07T04:53:46;4.03;;;3.37;;
4555;SDS011;2290;48.674;9.018;2023-05-07T04:56:11;4.47;;;2.93;;
4555;SDS011;2290;48.674;9.018;2023-05-07T04:58:37;4.13;;;3.13;;
4555;SDS011;2290;48.674;9.018;2023-05-07T05:01:03;3.73;;;3.33;;
4555;SDS011;2290;48.674;9.018;2023-05-07T05:03:29;4.57;;;3.53;;
4555;SDS011;2290;48.674;9.018;2023-05-07T05:05:56;8.27;;;3.10;;
4555;SDS011;2290;48.674;9.018;2023-05-07T05:08:24;5.00;;;3.43;;
4555;SDS011;2290;48.674;9.018;2023-05-07T05:10:51;6.27;;;3.53;;
4555;SDS011;2290;48.674;9.018;2023-05-07T05:13:17;4.00;;;3.00;;
4555;SDS011;2290;48.674;9.018;2023-05-07T05:15:42;5.40;;;3.10;;
4555;SDS011;2290;48.674;9.018;2023-05-07T05:18:08;4.27;;;3.47;;
4555;SDS011;2290;48.674;9.018;2023-05-07T05:20:34;4.80;;;3.37;;
4555;SDS011;2290;48.674;9.018;2023-05-07T05:23:00;3.60;;;3.30;;
4555;SDS011;2290;48.674;9.018;2023-05-07T05:25:25;4.00;;;2.97;;
4555;SDS011;2290;48.674;9.018;2023-05-07T05:27:53;5.93;;;3.43;;
4555;SDS011;2290;48.674;9.018;2023-05-07T05:30:18;5.03;;;3.90;;
4555;SDS011;2290;48.674;9.018;2023-05-07T05:32:44;4.50;;;3.27;;
4555;SDS011;2290;48.674;9.018;2023-05-07T05:35:10;6.10;;;4.10;;
4555;SDS011;2290;48.674;9.018;2023-05-07T05:37:35;6.67;;;3.50;;
4555;SDS011;2290;48.674;9.018;2023-05-07T05:40:01;5.63;;;4.00;;
4555;SDS011;2290;48.674;9.018;2023-05-07T05:42:27;4.70;;;3.90;;
4555;SDS011;2290;48.674;9.018;2023-05-07T05:44:52;3.90;;;3.50;;
4555;SDS011;2290;48.674;9.018;2023-05-07T05:47:19;5.60;;;3.90;;
4555;SDS011;2290;48.674;9.018;2023-05-07T05:49:47;6.50;;;3.67;;
4555;SDS011;2290;48.674;9.018;2023-05-07T05:52:17;5.83;;;3.93;;
4555;SDS011;2290;48.674;9.018;2023-05-07T05:54:43;4.80;;;3.50;;
4555;SDS011;2290;48.674;9.018;2023-05-07T05:57:08;6.60;;;4.23;;
4555;SDS011;2290;48.674;9.018;2023-05-07T05:59:34;6.27;;;3.87;;
4555;SDS011;2290;48.674;9.018;2023-05-07T06:02:00;5.10;;;3.73;;
4555;SDS011;2290;48.674;9.018;2023-05-07T06:04:26;5.10;;;4.17;;
4555;SDS011;2290;48.674;9.018;2023-05-07T06:06:52;3.87;;;3.23;;
4555;SDS011;2290;48.674;9.018;2023-05-07T06:09:17;3.80;;;3.40;;
4555;SDS011;2290;48.674;9.018;2023-05-07T06:11:46;6.13;;;3.50;;
4555;SDS011;2290;48.674;9.018;2023-05-07T06:14:12;4.03;;;3.07;;
4555;SDS011;2290;48.674;9.018;2023-05-07T06:16:37;3.57;;;3.23;;
4555;SDS011;2290;48.674;9.018;2023-05-07T06:19:03;5.13;;;3.23;;
4555;SDS011;2290;48.674;9.018;2023-05-07T06:21:28;3.87;;;3.00;;
4555;SDS011;2290;48.674;9.018;2023-05-07T06:23:55;5.60;;;3.47;;
4555;SDS011;2290;48.674;9.018;2023-05-07T06:26:20;6.40;;;3.17;;
4555;SDS011;2290;48.674;9.018;2023-05-07T06:28:47;3.53;;;2.90;;
4555;SDS011;2290;48.674;9.018;2023-05-07T06:31:13;4.13;;;3.40;;
4555;SDS011;2290;48.674;9.018;2023-05-07T06:33:41;4.70;;;3.40;;
4555;SDS011;2290;48.674;9.018;2023-05-07T06:36:08;5.40;;;3.50;;
4555;SDS011;2290;48.674;9.018;2023-05-07T06:38:33;4.30;;;3.20;;
4555;SDS011;2290;48.674;9.018;2023-05-07T06:41:00;4.50;;;3.73;;
4555;SDS011;2290;48.674;9.018;2023-05-07T06:43:25;5.90;;;3.50;;
4555;SDS011;2290;48.674;9.018;2023-05-07T06:45:53;3.83;;;3.10;;
4555;SDS011;2290;48.674;9.018;2023-05-07T06:48:18;4.60;;;3.73;;
4555;SDS011;2290;48.674;9.018;2023-05-07T06:50:44;5.20;;;3.50;;
4555;SDS011;2290;48.674;9.018;2023-05-07T06:53:11;4.83;;;3.77;;
4555;SDS011;2290;48.674;9.018;2023-05-07T06:55:36;6.03;;;4.10;;
4555;SDS011;2290;48.674;9.018;2023-05-07T06:58:03;4.00;;;3.00;;
4555;SDS011;2290;48.674;9.018;2023-05-07T07:00:29;3.90;;;3.50;;
4555;SDS011;2290;48.674;9.018;2023-05-07T07:02:55;4.00;;;3.53;;
4555;SDS011;2290;48.674;9.018;2023-05-07T07:05:23;6.10;;;3.60;;
4555;SDS011;2290;48.674;9.018;2023-05-07T07:07:51;5.20;;;3.47;;
4555;SDS011;2290;48.674;9.018;2023-05-07T07:10:20;3.63;;;3.13;;
4555;SDS011;2290;48.674;9.018;2023-05-07T07:12:47;5.73;;;3.60;;
4555;SDS011;2290;48.674;9.018;2023-05-07T07:15:13;4.30;;;3.40;;
4555;SDS011;2290;48.674;9.018;2023-05-07T07:17:39;4.40;;;3.57;;
4555;SDS011;2290;48.674;9.018;2023-05-07T07:20:07;4.13;;;3.43;;
4555;SDS011;2290;48.674;9.018;2023-05-07T07:22:35;5.30;;;3.30;;
4555;SDS011;2290;48.674;9.018;2023-05-07T07:25:01;4.90;;;3.40;;
4555;SDS011;2290;48.674;9.018;2023-05-07T07:27:28;3.87;;;3.30;;
4555;SDS011;2290;48.674;9.018;2023-05-07T07:29:55;4.03;;;3.03;;
4555;SDS011;2290;48.674;9.018;2023-05-07T07:32:21;4.70;;;3.43;;
4555;SDS011;2290;48.674;9.018;2023-05-07T07:34:46;4.07;;;3.20;;
4555;SDS011;2290;48.674;9.018;2023-05-07T07:37:12;4.70;;;3.37;;
4555;SDS011;2290;48.674;9.018;2023-05-07T07:39:39;4.50;;;3.30;;
4555;SDS011;2290;48.674;9.018;2023-05-07T07:42:06;3.47;;;2.90;;
4555;SDS011;2290;48.674;9.018;2023-05-07T07:44:31;3.97;;;3.30;;
4555;SDS011;2290;48.674;9.018;2023-05-07T07:46:57;4.70;;;3.83;;
4555;SDS011;2290;48.674;9.018;2023-05-07T07:49:22;3.40;;;3.10;;
4555;SDS011;2290;48.674;9.018;2023-05-07T07:51:49;3.20;;;2.90;;
4555;SDS011;2290;48.674;9.018;2023-05-07T07:54:16;5.47;;;3.00;;
4555;SDS011;2290;48.674;9.018;2023-05-07T07:56:41;3.00;;;2.70;;
4555;SDS011;2290;48.674;9.018;2023-05-07T07:59:08;3.70;;;3.27;;
4555;SDS011;2290;48.674;9.018;2023-05-07T08:01:34;3.33;;;2.97;;
4555;SDS011;2290;48.674;9.018;2023-05-07T08:04:00;4.80;;;3.17;;
4555;SDS011;2290;48.674;9.018;2023-05-07T08:06:29;5.07;;;3.20;;
4555;SDS011;2290;48.674;9.018;2023-05-07T08:08:55;3.93;;;3.00;;
4555;SDS011;2290;48.674;9.018;2023-05-07T08:11:21;3.50;;;2.73;;
4555;SDS011;2290;48.674;9.018;2023-05-07T08:13:47;3.43;;;2.87;;
4555;SDS011;2290;48.674;9.018;2023-05-07T08:16:13;3.20;;;2.83;;
4555;SDS011;2290;48.674;9.018;2023-05-07T08:18:39;3.90;;;3.10;;
4555;SDS011;2290;48.674;9.018;2023-05-07T08:21:04;4.70;;;3.00;;
4555;SDS011;2290;48.674;9.018;2023-05-07T08:23:30;3.23;;;2.80;;
4555;SDS011;2290;48.674;9.018;2023-05-07T08:25:56;3.87;;;2.60;;
4555;SDS011;2290;48.674;9.018;2023-05-07T08:28:21;3.10;;;2.60;;
4555;SDS011;2290;48.674;9.018;2023-05-07T08:30:49;3.40;;;2.83;;
4555;SDS011;2290;48.674;9.018;2023-05-07T08:33:15;3.67;;;2.97;;
4555;SDS011;2290;48.674;9.018;2023-05-07T08:35:43;3.90;;;2.70;;
4555;SDS011;2290;48.674;9.018;2023-05-07T08:38:08;3.27;;;2.90;;
4555;SDS011;2290;48.674;9.018;2023-05-07T08:40:36;3.70;;;2.63;;
4555;SDS011;2290;48.674;9.018;2023-05-07T08:43:07;2.93;;;2.50;;
4555;SDS011;2290;48.674;9.018;2023-05-07T08:45:33;4.80;;;2.77;;
4555;SDS011;2290;48.674;9.018;2023-05-07T08:48:02;3.80;;;2.80;;
4555;SDS011;2290;48.674;9.018;2023-05-07T08:50:30;3.03;;;2.73;;
4555;SDS011;2290;48.674;9.018;2023-05-07T08:52:56;5.10;;;2.60;;
4555;SDS011;2290;48.674;9.018;2023-05-07T08:55:26;2.97;;;2.67;;
4555;SDS011;2290;48.674;9.018;2023-05-07T08:57:53;2.93;;;2.60;;
4555;SDS011;2290;48.674;9.018;2023-05-07T09:00:19;2.70;;;2.50;;
4555;SDS011;2290;48.674;9.018;2023-05-07T09:02:45;2.60;;;2.40;;
4555;SDS011;2290;48.674;9.018;2023-05-07T09:05:10;4.10;;;2.63;;
4555;SDS011;2290;48.674;9.018;2023-05-07T09:07:37;3.67;;;2.80;;
4555;SDS011;2290;48.674;9.018;2023-05-07T09:10:03;3.57;;;2.80;;
4555;SDS011;2290;48.674;9.018;2023-05-07T09:12:31;3.10;;;2.80;;
4555;SDS011;2290;48.674;9.018;2023-05-07T09:14:57;3.37;;;2.80;;
4555;SDS011;2290;48.674;9.018;2023-05-07T09:17:23;3.83;;;3.00;;
4555;SDS011;2290;48.674;9.018;2023-05-07T09:19:49;3.27;;;2.97;;
4555;SDS011;2290;48.674;9.018;2023-05-07T09:22:15;3.97;;;2.77;;
4555;SDS011;2290;48.674;9.018;2023-05-07T09:24:48;5.93;;;3.80;;
4555;SDS011;2290;48.674;9.018;2023-05-07T09:27:22;6.60;;;3.23;;
4555;SDS011;2290;48.674;9.018;2023-05-07T09:29:48;2.90;;;2.70;;
4555;SDS011;2290;48.674;9.018;2023-05-07T09:32:13;5.73;;;3.10;;
4555;SDS011;2290;48.674;9.018;2023-05-07T09:34:41;4.30;;;3.40;;
4555;SDS011;2290;48.674;9.018;2023-05-07T09:37:08;5.47;;;3.20;;
4555;SDS011;2290;48.674;9.018;2023-05-07T09:39:47;4.27;;;3.10;;
4555;SDS011;2290;48.674;9.018;2023-05-07T09:42:14;4.20;;;3.30;;
4555;SDS011;2290;48.674;9.018;2023-05-07T09:44:40;4.00;;;3.60;;
4555;SDS011;2290;48.674;9.018;2023-05-07T09:47:08;3.80;;;3.20;;
4555;SDS011;2290;48.674;9.018;2023-05-07T09:49:35;3.90;;;3.37;;
4555;SDS011;2290;48.674;9.018;2023-05-07T09:52:03;3.50;;;3.20;;
4555;SDS011;2290;48.674;9.018;2023-05-07T09:54:32;3.70;;;2.97;;
4555;SDS011;2290;48.674;9.018;2023-05-07T09:56:58;4.30;;;3.50;;
4555;SDS011;2290;48.674;9.018;2023-05-07T09:59:27;5.83;;;3.27;;
4555;SDS011;2290;48.674;9.018;2023-05-07T10:01:55;4.10;;;3.07;;
4555;SDS011;2290;48.674;9.018;2023-05-07T10:04:26;3.43;;;3.13;;
4555;SDS011;2290;48.674;9.018;2023-05-07T10:06:54;4.47;;;3.57;;
4555;SDS011;2290;48.674;9.018;2023-05-07T10:09:21;3.50;;;3.20;;
4555;SDS011;2290;48.674;9.018;2023-05-07T10:11:48;4.30;;;3.20;;
4555;SDS011;2290;48.674;9.018;2023-05-07T10:14:16;3.30;;;3.00;;
4555;SDS011;2290;48.674;9.018;2023-05-07T10:16:42;3.53;;;3.23;;
4555;SDS011;2290;48.674;9.018;2023-05-07T10:19:09;5.03;;;3.50;;
4555;SDS011;2290;48.674;9.018;2023-05-07T10:21:39;3.50;;;3.20;;
4555;SDS011;2290;48.674;9.018;2023-05-07T10:24:10;3.80;;;3.30;;
4555;SDS011;2290;48.674;9.018;2023-05-07T10:26:47;4.17;;;3.03;;
4555;SDS011;2290;48.674;9.018;2023-05-07T10:29:18;3.73;;;3.00;;
4555;SDS011;2290;48.674;9.018;2023-05-07T10:32:30;5.43;;;3.60;;
4555;SDS011;2290;48.674;9.018;2023-05-07T10:35:01;3.90;;;3.50;;
4555;SDS011;2290;48.674;9.018;2023-05-07T10:37:29;3.97;;;3.20;;
4555;SDS011;2290;48.674;9.018;2023-05-07T10:39:57;5.70;;;3.10;;
4555;SDS011;2290;48.674;9.018;2023-05-07T10:42:24;3.70;;;2.60;;
4555;SDS011;2290;48.674;9.018;2023-05-07T10:44:50;4.80;;;3.80;;
4555;SDS011;2290;48.674;9.018;2023-05-07T10:47:16;3.30;;;3.00;;
4555;SDS011;2290;48.674;9.018;2023-05-07T10:52:17;4.00;;;3.03;;
4555;SDS011;2290;48.674;9.018;2023-05-07T10:54:46;5.40;;;3.40;;
4555;SDS011;2290;48.674;9.018;2023-05-07T10:57:33;3.23;;;2.93;;
4555;SDS011;2290;48.674;9.018;2023-05-07T11:00:03;5.30;;;4.43;;
4555;SDS011;2290;48.674;9.018;2023-05-07T11:05:29;3.40;;;2.70;;
4555;SDS011;2290;48.674;9.018;2023-05-07T11:07:59;2.93;;;2.63;;
4555;SDS011;2290;48.674;9.018;2023-05-07T11:11:09;3.10;;;2.80;;
4555;SDS011;2290;48.674;9.018;2023-05-07T11:13:42;3.50;;;2.93;;
4555;SDS011;2290;48.674;9.018;2023-05-07T11:16:16;3.53;;;3.00;;
4555;SDS011;2290;48.674;9.018;2023-05-07T11:18:54;3.50;;;3.20;;
4555;SDS011;2290;48.674;9.018;2023-05-07T11:21:33;3.40;;;3.10;;
4555;SDS011;2290;48.674;9.018;2023-05-07T11:24:07;4.03;;;3.30;;
4555;SDS011;2290;48.674;9.018;2023-05-07T11:26:43;4.07;;;3.17;;
4555;SDS011;2290;48.674;9.018;2023-05-07T11:29:18;3.53;;;2.90;;
4555;SDS011;2290;48.674;9.018;2023-05-07T11:31:49;3.60;;;3.30;;
4555;SDS011;2290;48.674;9.018;2023-05-07T11:34:20;3.97;;;3.57;;
4555;SDS011;2290;48.674;9.018;2023-05-07T11:36:51;3.67;;;3.10;;
4555;SDS011;2290;48.674;9.018;2023-05-07T11:41:55;3.67;;;3.27;;
4555;SDS011;2290;48.674;9.018;2023-05-07T11:44:20;3.33;;;2.80;;
4555;SDS011;2290;48.674;9.018;2023-05-07T11:46:51;3.37;;;3.07;;
4555;SDS011;2290;48.674;9.018;2023-05-07T11:49:17;3.63;;;2.90;;
4555;SDS011;2290;48.674;9.018;2023-05-07T11:51:43;4.13;;;2.80;;
4555;SDS011;2290;48.674;9.018;2023-05-07T11:54:09;3.60;;;2.87;;
4555;SDS011;2290;48.674;9.018;2023-05-07T11:56:37;3.80;;;2.70;;
4555;SDS011;2290;48.674;9.018;2023-05-07T11:59:04;3.50;;;3.20;;
4555;SDS011;2290;48.674;9.018;2023-05-07T12:01:40;3.47;;;3.17;;
4555;SDS011;2290;48.674;9.018;2023-05-07T12:04:29;4.80;;;3.00;;
4555;SDS011;2290;48.674;9.018;2023-05-07T12:06:55;5.03;;;2.80;;
4555;SDS011;2290;48.674;9.018;2023-05-07T12:09:21;3.50;;;2.90;;
4555;SDS011;2290;48.674;9.018;2023-05-07T12:11:47;4.90;;;3.33;;
4555;SDS011;2290;48.674;9.018;2023-05-07T12:14:13;2.53;;;2.20;;
4555;SDS011;2290;48.674;9.018;2023-05-07T12:16:40;2.00;;;1.70;;
4555;SDS011;2290;48.674;9.018;2023-05-07T12:19:07;2.17;;;1.67;;
4555;SDS011;2290;48.674;9.018;2023-05-07T12:21:37;2.20;;;1.70;;
4555;SDS011;2290;48.674;9.018;2023-05-07T12:24:04;1.50;;;1.40;;
4555;SDS011;2290;48.674;9.018;2023-05-07T12:26:31;1.43;;;1.27;;
4555;SDS011;2290;48.674;9.018;2023-05-07T12:28:57;2.57;;;1.53;;
4555;SDS011;2290;48.674;9.018;2023-05-07T12:31:25;2.23;;;1.70;;
4555;SDS011;2290;48.674;9.018;2023-05-07T12:33:57;1.67;;;1.23;;
4555;SDS011;2290;48.674;9.018;2023-05-07T12:36:25;3.50;;;1.90;;
4555;SDS011;2290;48.674;9.018;2023-05-07T12:38:51;2.77;;;1.80;;
4555;SDS011;2290;48.674;9.018;2023-05-07T12:41:18;2.93;;;2.60;;
4555;SDS011;2290;48.674;9.018;2023-05-07T12:43:50;3.07;;;2.80;;
4555;SDS011;2290;48.674;9.018;2023-05-07T12:46:23;5.70;;;3.13;;
4555;SDS011;2290;48.674;9.018;2023-05-07T12:48:51;3.90;;;3.40;;
4555;SDS011;2290;48.674;9.018;2023-05-07T12:51:17;8.60;;;3.83;;
4555;SDS011;2290;48.674;9.018;2023-05-07T12:53:44;7.40;;;3.40;;
4555;SDS011;2290;48.674;9.018;2023-05-07T12:56:10;9.03;;;3.40;;
4555;SDS011;2290;48.674;9.018;2023-05-07T12:58:36;6.40;;;2.97;;
4555;SDS011;2290;48.674;9.018;2023-05-07T13:01:08;5.77;;;3.10;;
4555;SDS011;2290;48.674;9.018;2023-05-07T13:03:35;4.10;;;3.00;;
4555;SDS011;2290;48.674;9.018;2023-05-07T13:08:34;3.47;;;2.80;;
4555;SDS011;2290;48.674;9.018;2023-05-07T13:11:02;4.90;;;2.70;;
4555;SDS011;2290;48.674;9.018;2023-05-07T13:13:32;4.50;;;2.77;;
4555;SDS011;2290;48.674;9.018;2023-05-07T13:15:59;4.00;;;2.80;;
4555;SDS011;2290;48.674;9.018;2023-05-07T13:18:33;4.33;;;3.33;;
4555;SDS011;2290;48.674;9.018;2023-05-07T13:20:59;3.17;;;2.70;;
4555;SDS011;2290;48.674;9.018;2023-05-07T13:23:26;12.97;;;3.67;;
4555;SDS011;2290;48.674;9.018;2023-05-07T13:25:52;4.23;;;3.13;;
4555;SDS011;2290;48.674;9.018;2023-05-07T13:28:18;3.20;;;2.70;;
4555;SDS011;2290;48.674;9.018;2023-05-07T13:30:46;4.30;;;2.60;;
4555;SDS011;2290;48.674;9.018;2023-05-07T13:33:11;4.30;;;2.30;;
4555;SDS011;2290;48.674;9.018;2023-05-07T13:35:38;5.00;;;3.87;;
4555;SDS011;2290;48.674;9.018;2023-05-07T13:38:04;6.40;;;3.23;;
4555;SDS011;2290;48.674;9.018;2023-05-07T13:40:30;3.93;;;2.63;;
4555;SDS011;2290;48.674;9.018;2023-05-07T13:43:01;2.93;;;2.63;;
4555;SDS011;2290;48.674;9.018;2023-05-07T13:45:28;5.87;;;3.13;;
4555;SDS011;2290;48.674;9.018;2023-05-07T13:47:58;3.80;;;2.63;;
4555;SDS011;2290;48.674;9.018;2023-05-07T13:50:24;3.77;;;2.70;;
4555;SDS011;2290;48.674;9.018;2023-05-07T13:52:51;4.13;;;2.90;;
4555;SDS011;2290;48.674;9.018;2023-05-07T13:55:21;3.33;;;2.80;;
4555;SDS011;2290;48.674;9.018;2023-05-07T13:57:48;3.93;;;3.00;;
4555;SDS011;2290;48.674;9.018;2023-05-07T14:00:24;3.07;;;2.40;;
4555;SDS011;2290;48.674;9.018;2023-05-07T14:02:49;3.20;;;2.77;;
4555;SDS011;2290;48.674;9.018;2023-05-07T14:05:15;3.47;;;2.70;;
4555;SDS011;2290;48.674;9.018;2023-05-07T14:07:42;4.83;;;2.63;;
4555;SDS011;2290;48.674;9.018;2023-05-07T14:10:08;4.23;;;2.70;;
4555;SDS011;2290;48.674;9.018;2023-05-07T14:12:35;3.30;;;2.90;;
4555;SDS011;2290;48.674;9.018;2023-05-07T14:15:01;4.87;;;2.40;;
4555;SDS011;2290;48.674;9.018;2023-05-07T14:17:28;2.27;;;2.07;;
4555;SDS011;2290;48.674;9.018;2023-05-07T14:19:55;2.70;;;2.27;;
4555;SDS011;2290;48.674;9.018;2023-05-07T14:22:23;5.70;;;3.17;;
4555;SDS011;2290;48.674;9.018;2023-05-07T14:24:49;3.13;;;2.93;;
4555;SDS011;2290;48.674;9.018;2023-05-07T14:27:15;4.33;;;2.20;;
4555;SDS011;2290;48.674;9.018;2023-05-07T14:29:41;3.43;;;2.67;;
4555;SDS011;2290;48.674;9.018;2023-05-07T14:32:10;3.30;;;2.27;;
4555;SDS011;2290;48.674;9.018;2023-05-07T14:34:38;3.73;;;2.40;;
4555;SDS011;2290;48.674;9.018;2023-05-07T14:37:03;3.00;;;2.50;;
4555;SDS011;2290;48.674;9.018;2023-05-07T14:39:29;3.50;;;2.77;;
4555;SDS011;2290;48.674;9.018;2023-05-07T14:41:56;4.50;;;2.90;;
4555;SDS011;2290;48.674;9.018;2023-05-07T14:44:22;5.90;;;2.67;;
4555;SDS011;2290;48.674;9.018;2023-05-07T14:46:48;2.60;;;2.40;;
4555;SDS011;2290;48.674;9.018;2023-05-07T14:49:13;3.93;;;2.33;;
4555;SDS011;2290;48.674;9.018;2023-05-07T14:51:45;2.57;;;2.17;;
4555;SDS011;2290;48.674;9.018;2023-05-07T14:54:14;4.10;;;2.57;;
4555;SDS011;2290;48.674;9.018;2023-05-07T14:56:41;4.07;;;3.03;;
4555;SDS011;2290;48.674;9.018;2023-05-07T14:59:07;5.93;;;3.50;;
4555;SDS011;2290;48.674;9.018;2023-05-07T15:01:35;4.77;;;3.07;;
4555;SDS011;2290;48.674;9.018;2023-05-07T15:04:02;7.73;;;3.20;;
4555;SDS011;2290;48.674;9.018;2023-05-07T15:06:28;3.17;;;2.67;;
4555;SDS011;2290;48.674;9.018;2023-05-07T15:08:59;3.47;;;2.80;;
4555;SDS011;2290;48.674;9.018;2023-05-07T15:11:24;2.57;;;2.37;;
4555;SDS011;2290;48.674;9.018;2023-05-07T15:13:50;6.53;;;2.43;;
4555;SDS011;2290;48.674;9.018;2023-05-07T15:16:17;2.60;;;2.40;;
4555;SDS011;2290;48.674;9.018;2023-05-07T15:18:43;3.53;;;2.83;;
4555;SDS011;2290;48.674;9.018;2023-05-07T15:21:08;3.67;;;2.90;;
4555;SDS011;2290;48.674;9.018;2023-05-07T15:23:34;3.83;;;2.97;;
4555;SDS011;2290;48.674;9.018;2023-05-07T15:26:00;3.90;;;2.90;;